createdAt,value
2018-10-19T00:01:58.420Z,88.38
2018-10-19T00:04:26.899Z,87.37
2018-10-19T00:06:55.349Z,86.99
2018-10-19T00:09:23.851Z,86.14
2018-10-19T00:11:52.368Z,86.56
2018-10-19T00:14:20.842Z,86.61
2018-10-19T00:16:49.305Z,86.35
2018-10-19T00:19:17.814Z,86.52
2018-10-19T00:21:46.277Z,86.16
2018-10-19T00:24:14.783Z,86.22
2018-10-19T00:26:43.257Z,86.01
2018-10-19T00:29:11.852Z,86.41
2018-10-19T00:31:40.395Z,86.65
2018-10-19T00:34:09.399Z,85.98
2018-10-19T00:36:37.907Z,86.05
2018-10-19T00:39:08.782Z,86.11
2018-10-19T00:41:37.209Z,87.05
2018-10-19T00:44:05.904Z,86.99
2018-10-19T00:46:34.360Z,87.58
2018-10-19T00:49:03.135Z,87.15
2018-10-19T00:51:31.635Z,86.95
2018-10-19T00:54:00.174Z,86.54
2018-10-19T00:56:28.623Z,85.63
2018-10-19T00:58:57.108Z,86.63
2018-10-19T01:01:25.526Z,86.94
2018-10-19T01:03:54.067Z,87.08
2018-10-19T01:06:22.511Z,87.76
2018-10-19T01:08:51.004Z,87.34
2018-10-19T01:11:19.447Z,87.47
2018-10-19T01:13:47.910Z,86.70
2018-10-19T01:16:17.137Z,88.14
2018-10-19T01:18:45.632Z,86.99
2018-10-19T01:21:14.143Z,87.02
2018-10-19T01:23:42.543Z,86.57
2018-10-19T01:26:11.129Z,86.18
2018-10-19T01:28:39.600Z,86.88
2018-10-19T01:31:08.126Z,86.81
2018-10-19T01:33:36.580Z,86.92
2018-10-19T01:36:06.494Z,86.32
2018-10-19T01:38:35.570Z,86.66
2018-10-19T01:41:04.132Z,87.35
2018-10-19T01:43:32.629Z,87.42
2018-10-19T01:46:01.087Z,87.51
2018-10-19T01:48:29.775Z,87.70
2018-10-19T01:50:58.999Z,87.16
2018-10-19T01:53:27.739Z,86.91
2018-10-19T01:55:56.200Z,87.84
2018-10-19T01:58:24.649Z,87.26
2018-10-19T02:00:53.124Z,87.26
2018-10-19T02:03:21.606Z,87.91
2018-10-19T02:05:50.066Z,87.12
2018-10-19T02:08:18.552Z,87.22
2018-10-19T02:10:47.005Z,87.32
2018-10-19T02:13:15.417Z,87.16
2018-10-19T02:15:43.887Z,87.55
2018-10-19T02:18:12.374Z,87.15
2018-10-19T02:20:40.923Z,87.17
2018-10-19T02:23:09.429Z,87.14
2018-10-19T02:25:37.836Z,86.99
2018-10-19T02:28:06.335Z,86.86
2018-10-19T02:30:34.800Z,86.42
2018-10-19T02:33:03.241Z,86.05
2018-10-19T02:35:31.669Z,86.73
2018-10-19T02:38:00.641Z,87.04
2018-10-19T02:40:29.093Z,86.88
2018-10-19T02:42:57.594Z,87.08
2018-10-19T02:45:26.036Z,86.61
2018-10-19T02:47:54.485Z,86.78
2018-10-19T02:50:22.925Z,87.17
2018-10-19T02:52:51.442Z,87.36
2018-10-19T02:55:19.894Z,86.91
2018-10-19T02:57:48.311Z,86.48
2018-10-19T03:00:16.763Z,87.09
2018-10-19T03:02:45.257Z,87.32
2018-10-19T03:05:13.687Z,87.61
2018-10-19T03:07:42.105Z,87.54
2018-10-19T03:10:10.537Z,88.00
2018-10-19T03:12:39.625Z,87.38
2018-10-19T03:15:08.695Z,87.33
2018-10-19T03:17:37.191Z,90.23
2018-10-19T03:20:07.162Z,89.38
2018-10-19T03:22:35.796Z,88.61
2018-10-19T03:25:04.310Z,88.03
2018-10-19T03:27:32.933Z,87.43
2018-10-19T03:30:01.382Z,86.76
2018-10-19T03:32:29.874Z,86.52
2018-10-19T03:34:58.371Z,87.70
2018-10-19T03:37:26.888Z,87.04
2018-10-19T03:39:55.382Z,87.01
2018-10-19T03:42:23.933Z,86.31
2018-10-19T03:44:52.389Z,86.35
2018-10-19T03:47:20.920Z,87.93
2018-10-19T03:49:49.366Z,87.76
2018-10-19T03:52:17.819Z,87.31
2018-10-19T03:54:46.292Z,87.64
2018-10-19T03:57:15.670Z,86.76
2018-10-19T03:59:44.080Z,87.61
2018-10-19T04:02:12.632Z,86.83
2018-10-19T04:04:41.190Z,87.03
2018-10-19T04:07:09.651Z,87.01
2018-10-19T04:09:38.137Z,87.43
2018-10-19T04:12:06.612Z,87.29
2018-10-19T04:14:37.152Z,88.07
2018-10-19T04:17:06.036Z,86.64
2018-10-19T04:19:35.300Z,88.07
2018-10-19T04:22:03.720Z,87.98
2018-10-19T04:24:32.252Z,87.67
2018-10-19T04:27:00.765Z,87.31
2018-10-19T04:29:29.338Z,87.10
2018-10-19T04:31:57.854Z,86.90
2018-10-19T04:34:26.350Z,87.45
2018-10-19T04:37:00.772Z,87.22
2018-10-19T04:39:29.342Z,87.16
2018-10-19T04:41:58.093Z,88.06
2018-10-19T04:44:26.832Z,88.14
2018-10-19T04:46:56.209Z,87.35
2018-10-19T04:49:24.664Z,86.57
2018-10-19T04:51:53.188Z,86.53
2018-10-19T04:54:22.009Z,86.05
2018-10-19T04:56:50.491Z,88.92
2018-10-19T04:59:19.207Z,87.82
2018-10-19T05:01:48.727Z,88.21
2018-10-19T05:04:18.017Z,87.81
2018-10-19T05:06:46.859Z,87.15
2018-10-19T05:09:15.250Z,87.10
2018-10-19T05:11:43.719Z,87.48
2018-10-19T05:14:12.265Z,86.41
2018-10-19T05:16:41.642Z,85.68
2018-10-19T05:19:10.055Z,86.63
2018-10-19T05:21:38.724Z,86.80
2018-10-19T05:24:07.943Z,86.55
2018-10-19T05:26:36.436Z,87.44
2018-10-19T05:29:05.267Z,87.62
2018-10-19T05:31:34.293Z,86.85
2018-10-19T05:34:02.772Z,86.80
2018-10-19T05:36:31.438Z,87.32
2018-10-19T05:38:59.946Z,87.59
2018-10-19T05:41:28.381Z,88.04
2018-10-19T05:43:56.906Z,87.10
2018-10-19T05:46:25.328Z,87.62
2018-10-19T05:48:53.876Z,87.93
2018-10-19T05:51:22.419Z,88.06
2018-10-19T05:53:50.840Z,88.28
2018-10-19T05:56:20.211Z,88.06
2018-10-19T05:58:48.700Z,86.96
2018-10-19T06:01:17.131Z,89.09
2018-10-19T06:03:45.579Z,88.80
2018-10-19T06:06:14.064Z,87.97
2018-10-19T06:08:42.479Z,88.01
2018-10-19T06:11:11.040Z,86.40
2018-10-19T06:13:39.424Z,86.89
2018-10-19T06:16:07.883Z,86.10
2018-10-19T06:18:36.267Z,86.61
2018-10-19T06:21:05.798Z,87.15
2018-10-19T06:23:34.747Z,86.66
2018-10-19T06:26:03.319Z,87.78
2018-10-19T06:28:32.429Z,87.98
2018-10-19T06:31:01.073Z,88.35
2018-10-19T06:33:29.893Z,87.97
2018-10-19T06:35:59.427Z,86.50
2018-10-19T06:38:28.507Z,88.02
2018-10-19T06:40:57.013Z,88.78
2018-10-19T06:43:26.083Z,85.91
2018-10-19T06:45:54.610Z,87.44
2018-10-19T06:48:25.089Z,87.22
2018-10-19T06:50:54.503Z,86.53
2018-10-19T06:53:22.994Z,86.87
2018-10-19T06:55:51.600Z,86.09
2018-10-19T06:58:21.015Z,85.69
2018-10-19T07:00:49.595Z,85.61
2018-10-19T07:03:18.122Z,84.75
2018-10-19T07:05:47.087Z,84.61
2018-10-19T07:08:15.730Z,83.67
2018-10-19T07:10:44.209Z,83.82
2018-10-19T07:13:12.718Z,85.26
2018-10-19T07:15:41.381Z,84.01
2018-10-19T07:18:10.240Z,83.82
2018-10-19T07:20:38.711Z,82.93
2018-10-19T07:23:07.407Z,83.83
2018-10-19T07:25:36.708Z,84.93
2018-10-19T07:28:05.420Z,82.54
2018-10-19T07:30:34.430Z,89.29
2018-10-19T07:33:02.940Z,81.10
2018-10-19T07:35:31.424Z,75.79
2018-10-19T07:37:59.944Z,72.79
2018-10-19T07:40:28.380Z,70.84
2018-10-19T07:42:57.432Z,70.80
2018-10-19T07:45:25.892Z,69.73
2018-10-19T07:47:57.159Z,70.41
2018-10-19T07:50:25.794Z,69.62
2018-10-19T07:52:55.196Z,68.64
2018-10-19T07:55:23.696Z,68.95
2018-10-19T07:57:52.164Z,68.25
2018-10-19T08:00:20.676Z,67.50
2018-10-19T08:02:49.165Z,67.06
2018-10-19T08:05:17.630Z,67.07
2018-10-19T08:07:46.128Z,65.49
2018-10-19T08:10:15.406Z,70.02
2018-10-19T08:12:43.872Z,71.13
2018-10-19T08:15:12.308Z,74.31
2018-10-19T08:17:40.807Z,76.16
2018-10-19T08:20:10.136Z,75.52
2018-10-19T08:22:38.804Z,75.55
2018-10-19T08:25:07.430Z,76.49
2018-10-19T08:27:37.619Z,76.29
2018-10-19T08:30:06.959Z,75.61
2018-10-19T08:32:35.435Z,77.86
2018-10-19T08:35:03.930Z,76.49
2018-10-19T08:37:32.452Z,75.49
2018-10-19T08:40:00.912Z,74.73
2018-10-19T08:42:29.348Z,76.29
2018-10-19T08:44:57.840Z,76.26
2018-10-19T08:47:26.357Z,73.17
2018-10-19T08:49:59.125Z,75.05
2018-10-19T08:52:27.584Z,73.21
2018-10-19T08:54:56.013Z,72.95
2018-10-19T08:57:24.494Z,72.40
2018-10-19T08:59:52.942Z,70.88
2018-10-19T09:02:21.390Z,72.10
2018-10-19T09:04:50.721Z,71.61
2018-10-19T09:07:19.118Z,72.27
2018-10-19T09:09:47.629Z,70.84
2018-10-19T09:12:16.107Z,74.56
2018-10-19T09:14:54.819Z,73.95
2018-10-19T09:17:23.359Z,74.41
2018-10-19T09:19:52.132Z,74.10
2018-10-19T09:22:21.691Z,72.46
2018-10-19T09:24:50.880Z,74.12
2018-10-19T09:27:19.938Z,72.08
2018-10-19T09:29:48.676Z,74.33
2018-10-19T09:32:17.726Z,73.04
2018-10-19T09:34:46.281Z,72.01
2018-10-19T09:37:15.167Z,71.06
2018-10-19T09:39:43.696Z,71.88
2018-10-19T09:42:12.358Z,71.24
2018-10-19T09:44:40.998Z,70.58
2018-10-19T09:47:09.834Z,68.96
2018-10-19T09:49:38.347Z,71.49
2018-10-19T09:52:06.832Z,71.27
2018-10-19T09:54:36.173Z,69.32
2018-10-19T09:57:04.766Z,67.93
2018-10-19T09:59:33.268Z,67.27
2018-10-19T10:02:01.780Z,66.24
2018-10-19T10:04:30.947Z,63.51
2018-10-19T10:06:59.544Z,64.19
2018-10-19T10:09:27.955Z,64.42
2018-10-19T10:11:57.409Z,63.80
2018-10-19T10:14:25.899Z,63.67
2018-10-19T10:16:54.423Z,64.12
2018-10-19T10:19:22.868Z,60.48
2018-10-19T10:21:51.375Z,62.13
2018-10-19T10:24:20.026Z,59.54
2018-10-19T10:26:48.535Z,60.78
2018-10-19T10:29:17.073Z,60.62
2018-10-19T10:31:45.487Z,60.23
2018-10-19T10:34:13.975Z,61.04
2018-10-19T10:36:42.663Z,62.14
2018-10-19T10:39:12.791Z,61.08
2018-10-19T10:41:43.548Z,60.32
2018-10-19T10:44:12.775Z,60.11
2018-10-19T10:46:41.267Z,60.91
2018-10-19T10:49:09.846Z,60.56
2018-10-19T10:51:38.292Z,59.99
2018-10-19T10:54:06.780Z,58.92
2018-10-19T10:56:35.348Z,59.12
2018-10-19T10:59:03.855Z,58.83
2018-10-19T11:01:32.327Z,59.56
2018-10-19T11:04:00.782Z,60.71
2018-10-19T11:06:29.220Z,60.66
2018-10-19T11:08:57.671Z,57.90
2018-10-19T11:11:26.181Z,60.68
2018-10-19T11:13:54.704Z,58.49
2018-10-19T11:16:23.136Z,57.20
2018-10-19T11:18:51.707Z,55.09
2018-10-19T11:21:20.155Z,56.10
2018-10-19T11:23:48.615Z,56.85
2018-10-19T11:26:17.092Z,55.35
2018-10-19T11:28:45.543Z,54.29
2018-10-19T11:31:14.793Z,57.05
2018-10-19T11:33:43.252Z,56.15
2018-10-19T11:36:11.740Z,55.68
2018-10-19T11:38:40.219Z,55.02
2018-10-19T11:41:08.637Z,55.61
2018-10-19T11:43:37.059Z,55.65
2018-10-19T11:46:05.938Z,54.59
2018-10-19T11:48:35.432Z,54.75
2018-10-19T11:51:03.815Z,55.80
2018-10-19T11:53:32.288Z,54.05
2018-10-19T11:56:00.737Z,53.73
2018-10-19T11:58:29.241Z,53.70
2018-10-19T12:00:57.776Z,54.08
2018-10-19T12:03:26.293Z,55.34
2018-10-19T12:05:54.997Z,56.55
2018-10-19T12:08:25.297Z,54.66
2018-10-19T12:10:53.796Z,56.38
2018-10-19T12:13:22.282Z,56.63
2018-10-19T12:15:50.723Z,58.12
2018-10-19T12:18:19.188Z,57.32
2018-10-19T12:20:47.690Z,54.33
2018-10-19T12:23:16.948Z,54.12
2018-10-19T12:25:46.129Z,53.98
2018-10-19T12:28:15.942Z,53.80
2018-10-19T12:30:44.375Z,52.58
2018-10-19T12:33:13.624Z,56.80
2018-10-19T12:35:41.997Z,53.07
2018-10-19T12:38:10.475Z,53.06
2018-10-19T12:40:38.915Z,52.23
2018-10-19T12:43:07.591Z,52.38
2018-10-19T12:46:47.252Z,52.66
2018-10-19T12:49:17.125Z,53.31
2018-10-19T12:51:45.636Z,54.85
2018-10-19T12:54:14.840Z,52.51
2018-10-19T12:56:43.280Z,53.61
2018-10-19T12:59:11.767Z,54.53
2018-10-19T13:01:40.261Z,53.74
2018-10-19T13:04:08.757Z,55.43
2018-10-19T13:06:37.689Z,54.75
2018-10-19T13:09:09.145Z,55.57
2018-10-19T13:11:37.768Z,54.95
2018-10-19T13:14:06.349Z,55.89
2018-10-19T13:16:34.775Z,56.02
2018-10-19T13:19:03.307Z,54.63
2018-10-19T13:21:32.278Z,54.93
2018-10-19T13:24:00.805Z,54.69
2018-10-19T13:26:29.216Z,55.23
2018-10-19T13:28:57.679Z,57.05
2018-10-19T13:31:27.639Z,56.20
2018-10-19T13:33:56.102Z,55.48
2018-10-19T13:36:24.515Z,55.59
2018-10-19T13:38:52.982Z,56.13
2018-10-19T13:41:21.506Z,55.31
2018-10-19T13:43:49.963Z,57.32
2018-10-19T13:46:18.437Z,56.09
2018-10-19T13:48:46.963Z,55.69
2018-10-19T13:51:15.637Z,56.82
2018-10-19T13:53:49.548Z,56.53
2018-10-19T13:56:18.219Z,56.52
2018-10-19T13:58:46.784Z,56.84
2018-10-19T14:01:15.240Z,56.81
2018-10-19T14:03:44.126Z,57.45
2018-10-19T14:06:12.831Z,56.88
2018-10-19T14:08:41.280Z,56.13
2018-10-19T14:11:09.751Z,56.46
2018-10-19T14:13:38.357Z,56.28
2018-10-19T14:16:07.360Z,56.94
2018-10-19T14:18:35.824Z,57.96
2018-10-19T14:21:04.319Z,57.66
2018-10-19T14:23:32.946Z,56.81
2018-10-19T14:26:01.436Z,56.43
2018-10-19T14:28:30.603Z,57.13
2018-10-19T14:30:59.088Z,57.56
2018-10-19T14:33:29.191Z,57.99
2018-10-19T14:35:57.822Z,57.42
2018-10-19T14:38:26.441Z,57.16
2018-10-19T14:40:54.953Z,57.13
2018-10-19T14:43:23.377Z,56.98
2018-10-19T14:45:54.273Z,56.16
2018-10-19T14:48:23.672Z,55.92
2018-10-19T14:50:52.134Z,57.25
2018-10-19T14:53:21.393Z,56.83
2018-10-19T14:55:49.859Z,57.42
2018-10-19T14:58:18.324Z,58.09
2018-10-19T15:00:47.285Z,57.25
2018-10-19T15:03:15.923Z,57.71
2018-10-19T15:05:44.323Z,58.04
2018-10-19T15:08:13.514Z,58.77
2018-10-19T15:10:42.445Z,59.47
2018-10-19T15:13:10.676Z,59.05
2018-10-19T15:15:39.127Z,59.75
2018-10-19T15:18:07.653Z,58.92
2018-10-19T15:20:36.641Z,58.92
2018-10-19T15:23:05.044Z,60.39
2018-10-19T15:25:33.586Z,60.83
2018-10-19T15:28:02.089Z,60.54
2018-10-19T15:30:30.542Z,61.00
2018-10-19T15:32:58.999Z,60.90
2018-10-19T15:35:27.469Z,61.50
2018-10-19T15:37:56.291Z,61.54
2018-10-19T15:40:25.471Z,61.28
2018-10-19T15:42:53.966Z,62.48
2018-10-19T15:45:22.561Z,62.51
2018-10-19T15:47:51.004Z,62.28
2018-10-19T15:50:19.463Z,63.14
2018-10-19T15:52:47.945Z,63.16
2018-10-19T15:55:16.479Z,63.46
2018-10-19T15:57:44.916Z,64.16
2018-10-19T16:00:13.572Z,64.30
2018-10-19T16:02:42.050Z,64.60
2018-10-19T16:05:10.672Z,65.01
2018-10-19T16:07:39.152Z,64.74
2018-10-19T16:10:07.880Z,65.46
2018-10-19T16:12:36.776Z,65.85
2018-10-19T16:15:06.285Z,66.39
2018-10-19T16:17:34.864Z,66.00
2018-10-19T16:20:03.300Z,66.73
2018-10-19T16:22:31.772Z,66.78
2018-10-19T16:25:00.258Z,66.99
2018-10-19T16:27:28.861Z,67.95
2018-10-19T16:29:57.327Z,68.47
2018-10-19T16:32:25.829Z,68.27
2018-10-19T16:34:54.324Z,68.65
2018-10-19T16:37:22.818Z,69.38
2018-10-19T16:39:51.284Z,69.35
2018-10-19T16:42:19.728Z,69.58
2018-10-19T16:44:50.332Z,69.49
2018-10-19T16:47:18.770Z,69.43
2018-10-19T16:49:47.220Z,69.79
2018-10-19T16:52:15.814Z,69.24
2018-10-19T16:54:44.252Z,69.90
2018-10-19T16:57:12.719Z,69.34
2018-10-19T16:59:41.155Z,71.63
2018-10-19T17:02:09.595Z,72.17
2018-10-19T17:04:38.108Z,72.45
2018-10-19T17:07:06.596Z,73.08
2018-10-19T17:09:36.011Z,73.90
2018-10-19T17:12:04.479Z,74.96
2018-10-19T17:14:32.905Z,75.25
2018-10-19T17:17:01.353Z,76.37
2018-10-19T17:19:29.771Z,76.88
2018-10-19T17:21:58.218Z,77.17
2018-10-19T17:24:26.733Z,77.64
2018-10-19T17:26:55.237Z,77.92
2018-10-19T17:29:23.708Z,78.67
2018-10-19T17:31:52.143Z,79.42
2018-10-19T17:34:20.636Z,79.19
2018-10-19T17:36:49.126Z,80.32
2018-10-19T17:39:17.951Z,80.13
2018-10-19T17:41:46.396Z,80.55
2018-10-19T17:44:15.086Z,81.52
2018-10-19T17:46:43.576Z,82.24
2018-10-19T17:49:12.947Z,82.52
2018-10-19T17:51:41.926Z,82.79
2018-10-19T17:54:10.570Z,83.07
2018-10-19T17:56:39.316Z,82.94
2018-10-19T17:59:07.774Z,82.83
2018-10-19T18:01:38.238Z,83.15
2018-10-19T18:04:06.828Z,83.66
2018-10-19T18:06:35.288Z,84.41
2018-10-19T18:09:04.063Z,83.95
2018-10-19T18:11:32.537Z,84.17
2018-10-19T18:14:01.148Z,84.94
2018-10-19T18:16:30.598Z,84.52
2018-10-19T18:18:59.085Z,84.70
2018-10-19T18:21:27.737Z,84.51
2018-10-19T18:23:56.715Z,84.56
2018-10-19T18:26:25.467Z,84.40
2018-10-19T18:28:54.108Z,83.37
2018-10-19T18:31:22.595Z,82.40
2018-10-19T18:33:51.040Z,83.14
2018-10-19T18:36:19.462Z,83.86
2018-10-19T18:38:47.947Z,85.07
2018-10-19T18:41:16.499Z,84.32
2018-10-19T18:43:44.931Z,84.79
2018-10-19T18:46:13.347Z,84.82
2018-10-19T18:48:41.813Z,85.57
2018-10-19T18:51:10.245Z,84.90
2018-10-19T18:53:38.731Z,85.29
2018-10-19T18:56:07.361Z,84.40
2018-10-19T18:58:35.799Z,83.64
2018-10-19T19:01:04.239Z,83.73
2018-10-19T19:03:32.648Z,83.69
2018-10-19T19:06:01.248Z,85.29
2018-10-19T19:08:29.751Z,85.00
2018-10-19T19:10:58.459Z,85.70
2018-10-19T19:13:29.423Z,86.38
2018-10-19T19:15:58.322Z,86.09
2018-10-19T19:18:27.458Z,85.81
2018-10-19T19:20:55.932Z,87.02
2018-10-19T19:23:24.482Z,85.94
2018-10-19T19:25:58.118Z,86.90
2018-10-19T19:28:26.644Z,87.58
2018-10-19T19:30:55.138Z,87.61
2018-10-19T19:33:28.790Z,87.78
2018-10-19T19:35:57.329Z,88.10
2018-10-19T19:38:25.783Z,87.77
2018-10-19T19:40:59.496Z,87.83
2018-10-19T19:43:27.917Z,86.51
2018-10-19T19:45:56.470Z,86.48
2018-10-19T19:48:30.209Z,85.96
2018-10-19T19:50:58.659Z,85.61
2018-10-19T19:53:27.103Z,85.77
2018-10-19T19:55:55.576Z,86.12
2018-10-19T19:58:24.647Z,86.20
2018-10-19T20:00:53.303Z,86.28
2018-10-19T20:03:21.762Z,85.76
2018-10-19T20:05:50.347Z,86.49
2018-10-19T20:08:18.819Z,86.19
2018-10-19T20:10:47.259Z,86.44
2018-10-19T20:13:15.835Z,86.57
2018-10-19T20:15:44.336Z,87.45
2018-10-19T20:18:12.891Z,87.29
2018-10-19T20:20:41.333Z,85.31
2018-10-19T20:23:09.835Z,86.70
2018-10-19T20:25:38.324Z,86.92
2018-10-19T20:28:06.855Z,86.44
2018-10-19T20:30:35.410Z,86.54
2018-10-19T20:33:03.910Z,86.28
2018-10-19T20:35:32.388Z,86.40
2018-10-19T20:38:01.354Z,87.32
2018-10-19T20:40:29.816Z,86.46
2018-10-19T20:42:58.239Z,86.98
2018-10-19T20:45:26.731Z,86.47
2018-10-19T20:47:55.282Z,87.17
2018-10-19T20:50:23.744Z,86.92
2018-10-19T20:52:52.308Z,86.40
2018-10-19T20:55:20.779Z,86.76
2018-10-19T20:57:49.255Z,86.60
2018-10-19T21:00:17.671Z,86.15
2018-10-19T21:02:46.103Z,86.10
2018-10-19T21:05:14.726Z,86.21
2018-10-19T21:07:43.129Z,86.31
2018-10-19T21:10:12.864Z,86.35
2018-10-19T21:12:41.345Z,87.00
2018-10-19T21:15:12.176Z,87.66
2018-10-19T21:17:41.840Z,87.88
2018-10-19T21:20:11.481Z,86.98
2018-10-19T21:22:39.869Z,86.59
2018-10-19T21:25:09.729Z,86.89
2018-10-19T21:27:38.586Z,87.11
2018-10-19T21:30:08.303Z,86.67
2018-10-19T21:32:37.589Z,87.11
2018-10-19T21:35:06.068Z,87.70
2018-10-19T21:37:35.007Z,87.35
2018-10-19T21:40:03.754Z,86.11
2018-10-19T21:42:32.218Z,87.32
2018-10-19T21:45:00.664Z,87.05
2018-10-19T21:47:29.204Z,87.78
2018-10-19T21:49:58.084Z,87.62
2018-10-19T21:52:26.559Z,87.02
2018-10-19T21:54:55.214Z,86.87
2018-10-19T21:57:23.629Z,87.10
2018-10-19T21:59:52.108Z,86.99
2018-10-19T22:02:20.573Z,87.26
2018-10-19T22:04:49.011Z,87.56
2018-10-19T22:07:17.464Z,88.88
2018-10-19T22:09:45.924Z,89.77
2018-10-19T22:12:15.153Z,88.75
2018-10-19T22:14:43.590Z,88.16
2018-10-19T22:17:13.216Z,87.15
2018-10-19T22:19:41.804Z,87.49
2018-10-19T22:22:10.231Z,87.25
2018-10-19T22:24:38.714Z,86.87
2018-10-19T22:27:07.191Z,86.67
2018-10-19T22:29:35.842Z,87.60
2018-10-19T22:32:04.771Z,87.39
2018-10-19T22:34:33.258Z,87.12
2018-10-19T22:37:01.806Z,86.43
2018-10-19T22:39:30.202Z,86.87
2018-10-19T22:41:58.650Z,86.97
2018-10-19T22:44:27.063Z,87.30
2018-10-19T22:46:59.964Z,87.35
2018-10-19T22:49:29.372Z,87.11
2018-10-19T22:51:57.868Z,87.51
2018-10-19T22:54:26.308Z,87.14
2018-10-19T22:56:55.798Z,88.29
2018-10-19T22:59:25.420Z,87.50
2018-10-19T23:01:53.893Z,86.93
2018-10-19T23:04:22.290Z,86.99
2018-10-19T23:06:50.819Z,86.68
2018-10-19T23:09:19.242Z,88.05
2018-10-19T23:11:47.685Z,88.62
2018-10-19T23:14:16.148Z,88.01
2018-10-19T23:16:44.611Z,88.16
2018-10-19T23:19:13.064Z,88.37
2018-10-19T23:21:42.103Z,88.57
2018-10-19T23:24:10.489Z,86.11
2018-10-19T23:26:38.923Z,85.82
2018-10-19T23:29:07.466Z,86.68
2018-10-19T23:31:36.009Z,86.89
2018-10-19T23:34:04.461Z,86.55
2018-10-19T23:36:32.978Z,88.82
2018-10-19T23:39:01.666Z,91.03
2018-10-19T23:41:30.112Z,91.15
2018-10-19T23:43:58.583Z,91.15
2018-10-19T23:46:27.740Z,90.44
2018-10-19T23:48:56.241Z,92.26
2018-10-19T23:51:24.679Z,92.11
2018-10-19T23:53:53.665Z,93.55
2018-10-19T23:56:22.095Z,92.70
2018-10-19T23:58:50.603Z,91.27
